sensor_id;sensor_type;location;lat;lon;timestamp;temperature;humidity
30381;DHT22;17169;50.966;11.038;2023-08-08T00:01:39;13.00;99.90
30381;DHT22;17169;50.966;11.038;2023-08-08T00:04:43;13.00;99.90
30381;DHT22;17169;50.966;11.038;2023-08-08T00:07:46;13.00;99.90
30381;DHT22;17169;50.966;11.038;2023-08-08T00:10:48;13.00;99.90
30381;DHT22;17169;50.966;11.038;2023-08-08T00:13:50;12.90;99.90
30381;DHT22;17169;50.966;11.038;2023-08-08T00:16:54;12.90;99.90
30381;DHT22;17169;50.966;11.038;2023-08-08T00:19:57;12.80;99.90
30381;DHT22;17169;50.966;11.038;2023-08-08T00:22:59;12.80;99.90
30381;DHT22;17169;50.966;11.038;2023-08-08T00:26:01;12.70;99.90
30381;DHT22;17169;50.966;11.038;2023-08-08T00:29:04;12.70;99.90
30381;DHT22;17169;50.966;11.038;2023-08-08T00:32:08;12.70;99.90
30381;DHT22;17169;50.966;11.038;2023-08-08T00:35:11;12.60;99.90
30381;DHT22;17169;50.966;11.038;2023-08-08T00:38:13;12.60;99.90
30381;DHT22;17169;50.966;11.038;2023-08-08T00:41:17;12.60;99.90
30381;DHT22;17169;50.966;11.038;2023-08-08T00:44:19;12.70;99.90
30381;DHT22;17169;50.966;11.038;2023-08-08T00:47:23;12.80;99.90
30381;DHT22;17169;50.966;11.038;2023-08-08T00:50:26;12.70;99.90
30381;DHT22;17169;50.966;11.038;2023-08-08T00:53:30;12.80;99.90
30381;DHT22;17169;50.966;11.038;2023-08-08T00:56:33;12.80;99.90
30381;DHT22;17169;50.966;11.038;2023-08-08T00:59:35;12.80;99.90
30381;DHT22;17169;50.966;11.038;2023-08-08T01:02:39;12.80;99.90
30381;DHT22;17169;50.966;11.038;2023-08-08T01:05:47;12.80;99.90
30381;DHT22;17169;50.966;11.038;2023-08-08T01:08:55;12.80;99.90
30381;DHT22;17169;50.966;11.038;2023-08-08T01:12:00;12.80;99.90
30381;DHT22;17169;50.966;11.038;2023-08-08T01:15:05;12.80;99.90
30381;DHT22;17169;50.966;11.038;2023-08-08T01:18:10;12.80;99.90
30381;DHT22;17169;50.966;11.038;2023-08-08T01:21:15;12.80;99.90
30381;DHT22;17169;50.966;11.038;2023-08-08T01:24:21;12.80;99.90
30381;DHT22;17169;50.966;11.038;2023-08-08T01:27:24;12.70;99.90
30381;DHT22;17169;50.966;11.038;2023-08-08T01:30:27;12.80;99.90
30381;DHT22;17169;50.966;11.038;2023-08-08T01:33:29;12.80;99.90
30381;DHT22;17169;50.966;11.038;2023-08-08T01:36:39;12.80;99.90
30381;DHT22;17169;50.966;11.038;2023-08-08T01:39:46;12.80;99.90
30381;DHT22;17169;50.966;11.038;2023-08-08T01:42:50;12.90;99.90
30381;DHT22;17169;50.966;11.038;2023-08-08T01:45:54;12.90;99.90
30381;DHT22;17169;50.966;11.038;2023-08-08T01:48:57;12.90;99.90
30381;DHT22;17169;50.966;11.038;2023-08-08T01:52:00;12.90;99.90
30381;DHT22;17169;50.966;11.038;2023-08-08T01:55:05;12.90;99.90
30381;DHT22;17169;50.966;11.038;2023-08-08T01:58:07;12.90;99.90
30381;DHT22;17169;50.966;11.038;2023-08-08T02:01:10;12.90;99.90
30381;DHT22;17169;50.966;11.038;2023-08-08T02:04:12;12.90;99.90
30381;DHT22;17169;50.966;11.038;2023-08-08T02:07:15;12.90;99.90
30381;DHT22;17169;50.966;11.038;2023-08-08T02:10:19;12.90;99.90
30381;DHT22;17169;50.966;11.038;2023-08-08T02:13:21;12.90;99.90
30381;DHT22;17169;50.966;11.038;2023-08-08T02:16:23;12.90;99.90
30381;DHT22;17169;50.966;11.038;2023-08-08T02:19:26;12.90;99.90
30381;DHT22;17169;50.966;11.038;2023-08-08T02:22:28;13.00;99.90
30381;DHT22;17169;50.966;11.038;2023-08-08T02:25:32;13.00;99.90
30381;DHT22;17169;50.966;11.038;2023-08-08T02:28:34;13.00;99.90
30381;DHT22;17169;50.966;11.038;2023-08-08T02:31:37;13.00;99.90
30381;DHT22;17169;50.966;11.038;2023-08-08T02:34:39;13.00;99.90
30381;DHT22;17169;50.966;11.038;2023-08-08T02:37:42;13.10;99.90
30381;DHT22;17169;50.966;11.038;2023-08-08T02:40:45;13.10;99.90
30381;DHT22;17169;50.966;11.038;2023-08-08T02:43:48;13.10;99.90
30381;DHT22;17169;50.966;11.038;2023-08-08T02:46:51;13.20;99.90
30381;DHT22;17169;50.966;11.038;2023-08-08T02:49:53;13.10;99.90
30381;DHT22;17169;50.966;11.038;2023-08-08T02:52:56;13.20;99.90
30381;DHT22;17169;50.966;11.038;2023-08-08T02:56:00;13.20;99.90
30381;DHT22;17169;50.966;11.038;2023-08-08T02:59:02;13.20;99.90
30381;DHT22;17169;50.966;11.038;2023-08-08T03:02:05;13.20;99.90
30381;DHT22;17169;50.966;11.038;2023-08-08T03:05:08;13.20;99.90
30381;DHT22;17169;50.966;11.038;2023-08-08T03:08:10;13.20;99.90
30381;DHT22;17169;50.966;11.038;2023-08-08T03:11:14;13.20;99.90
30381;DHT22;17169;50.966;11.038;2023-08-08T03:14:16;13.20;99.90
30381;DHT22;17169;50.966;11.038;2023-08-08T03:17:19;13.20;99.90
30381;DHT22;17169;50.966;11.038;2023-08-08T03:20:21;13.20;99.90
30381;DHT22;17169;50.966;11.038;2023-08-08T03:23:24;13.20;99.90
30381;DHT22;17169;50.966;11.038;2023-08-08T03:26:27;13.30;99.90
30381;DHT22;17169;50.966;11.038;2023-08-08T03:29:30;13.30;99.90
30381;DHT22;17169;50.966;11.038;2023-08-08T03:32:32;13.40;99.90
30381;DHT22;17169;50.966;11.038;2023-08-08T03:35:35;13.40;99.90
30381;DHT22;17169;50.966;11.038;2023-08-08T03:38:37;13.40;99.90
30381;DHT22;17169;50.966;11.038;2023-08-08T03:41:41;13.40;99.90
30381;DHT22;17169;50.966;11.038;2023-08-08T03:44:43;13.50;99.90
30381;DHT22;17169;50.966;11.038;2023-08-08T03:47:46;13.50;99.90
30381;DHT22;17169;50.966;11.038;2023-08-08T03:50:49;13.50;99.90
30381;DHT22;17169;50.966;11.038;2023-08-08T03:53:51;13.50;99.90
30381;DHT22;17169;50.966;11.038;2023-08-08T03:56:55;13.50;99.90
30381;DHT22;17169;50.966;11.038;2023-08-08T03:59:57;13.50;99.90
30381;DHT22;17169;50.966;11.038;2023-08-08T04:03:00;13.60;99.90
30381;DHT22;17169;50.966;11.038;2023-08-08T04:06:02;13.60;99.90
30381;DHT22;17169;50.966;11.038;2023-08-08T04:09:04;13.60;99.90
30381;DHT22;17169;50.966;11.038;2023-08-08T04:12:09;13.70;99.90
30381;DHT22;17169;50.966;11.038;2023-08-08T04:15:11;13.70;99.90
30381;DHT22;17169;50.966;11.038;2023-08-08T04:18:14;13.80;99.90
30381;DHT22;17169;50.966;11.038;2023-08-08T04:21:16;13.80;99.90
30381;DHT22;17169;50.966;11.038;2023-08-08T04:24:18;13.90;99.90
30381;DHT22;17169;50.966;11.038;2023-08-08T04:27:22;13.90;99.90
30381;DHT22;17169;50.966;11.038;2023-08-08T04:30:24;13.90;99.90
30381;DHT22;17169;50.966;11.038;2023-08-08T04:33:27;13.90;99.90
30381;DHT22;17169;50.966;11.038;2023-08-08T04:36:29;13.90;99.90
30381;DHT22;17169;50.966;11.038;2023-08-08T04:39:32;13.90;99.90
30381;DHT22;17169;50.966;11.038;2023-08-08T04:42:36;13.90;99.90
30381;DHT22;17169;50.966;11.038;2023-08-08T04:45:38;14.00;99.90
30381;DHT22;17169;50.966;11.038;2023-08-08T04:48:40;14.00;99.90
30381;DHT22;17169;50.966;11.038;2023-08-08T04:51:43;14.00;99.90
30381;DHT22;17169;50.966;11.038;2023-08-08T04:54:45;14.00;99.90
30381;DHT22;17169;50.966;11.038;2023-08-08T04:57:49;14.00;99.90
30381;DHT22;17169;50.966;11.038;2023-08-08T05:00:51;14.10;99.90
30381;DHT22;17169;50.966;11.038;2023-08-08T05:03:53;14.10;99.90
30381;DHT22;17169;50.966;11.038;2023-08-08T05:06:56;14.10;99.90
30381;DHT22;17169;50.966;11.038;2023-08-08T05:09:58;14.10;99.90
30381;DHT22;17169;50.966;11.038;2023-08-08T05:13:02;14.10;99.90
30381;DHT22;17169;50.966;11.038;2023-08-08T05:16:05;14.00;99.90
30381;DHT22;17169;50.966;11.038;2023-08-08T05:19:07;14.10;99.90
30381;DHT22;17169;50.966;11.038;2023-08-08T05:22:10;14.00;99.90
30381;DHT22;17169;50.966;11.038;2023-08-08T05:25:12;14.00;99.90
30381;DHT22;17169;50.966;11.038;2023-08-08T05:28:16;13.90;99.90
30381;DHT22;17169;50.966;11.038;2023-08-08T05:31:18;13.90;99.90
30381;DHT22;17169;50.966;11.038;2023-08-08T05:34:21;13.80;99.90
30381;DHT22;17169;50.966;11.038;2023-08-08T05:37:24;13.80;99.90
30381;DHT22;17169;50.966;11.038;2023-08-08T05:40:26;13.80;99.90
30381;DHT22;17169;50.966;11.038;2023-08-08T05:43:30;13.90;99.90
30381;DHT22;17169;50.966;11.038;2023-08-08T05:46:32;13.90;99.90
30381;DHT22;17169;50.966;11.038;2023-08-08T05:49:35;13.90;99.90
30381;DHT22;17169;50.966;11.038;2023-08-08T05:52:37;14.00;99.90
30381;DHT22;17169;50.966;11.038;2023-08-08T05:55:40;14.00;99.90
30381;DHT22;17169;50.966;11.038;2023-08-08T05:58:45;14.10;99.90
30381;DHT22;17169;50.966;11.038;2023-08-08T06:01:47;14.10;99.90
30381;DHT22;17169;50.966;11.038;2023-08-08T06:04:49;14.10;99.90
30381;DHT22;17169;50.966;11.038;2023-08-08T06:07:52;14.20;99.90
30381;DHT22;17169;50.966;11.038;2023-08-08T06:10:56;14.30;99.90
30381;DHT22;17169;50.966;11.038;2023-08-08T06:13:59;14.30;99.90
30381;DHT22;17169;50.966;11.038;2023-08-08T06:17:02;14.40;99.90
30381;DHT22;17169;50.966;11.038;2023-08-08T06:20:05;14.50;99.90
30381;DHT22;17169;50.966;11.038;2023-08-08T06:23:10;14.50;99.90
30381;DHT22;17169;50.966;11.038;2023-08-08T06:26:12;14.60;99.90
30381;DHT22;17169;50.966;11.038;2023-08-08T06:29:16;14.70;99.90
30381;DHT22;17169;50.966;11.038;2023-08-08T06:32:18;14.70;99.90
30381;DHT22;17169;50.966;11.038;2023-08-08T06:35:21;14.70;99.90
30381;DHT22;17169;50.966;11.038;2023-08-08T06:38:23;14.80;99.90
30381;DHT22;17169;50.966;11.038;2023-08-08T06:41:25;14.80;99.90
30381;DHT22;17169;50.966;11.038;2023-08-08T06:44:31;14.80;99.90
30381;DHT22;17169;50.966;11.038;2023-08-08T06:47:34;14.80;99.90
30381;DHT22;17169;50.966;11.038;2023-08-08T06:50:36;14.90;99.90
30381;DHT22;17169;50.966;11.038;2023-08-08T06:53:38;15.10;99.90
30381;DHT22;17169;50.966;11.038;2023-08-08T06:56:41;15.10;99.90
30381;DHT22;17169;50.966;11.038;2023-08-08T06:59:44;15.30;99.90
30381;DHT22;17169;50.966;11.038;2023-08-08T07:02:51;15.40;99.90
30381;DHT22;17169;50.966;11.038;2023-08-08T07:05:53;15.50;99.90
30381;DHT22;17169;50.966;11.038;2023-08-08T07:08:56;15.60;99.90
30381;DHT22;17169;50.966;11.038;2023-08-08T07:11:58;15.60;99.90
30381;DHT22;17169;50.966;11.038;2023-08-08T07:15:02;15.70;99.90
30381;DHT22;17169;50.966;11.038;2023-08-08T07:18:05;15.70;99.90
30381;DHT22;17169;50.966;11.038;2023-08-08T07:21:07;15.80;99.90
30381;DHT22;17169;50.966;11.038;2023-08-08T07:24:09;15.80;99.90
30381;DHT22;17169;50.966;11.038;2023-08-08T07:27:12;16.00;99.90
30381;DHT22;17169;50.966;11.038;2023-08-08T07:30:16;16.10;99.90
30381;DHT22;17169;50.966;11.038;2023-08-08T07:33:19;16.10;99.90
30381;DHT22;17169;50.966;11.038;2023-08-08T07:36:21;16.20;99.90
30381;DHT22;17169;50.966;11.038;2023-08-08T07:39:23;16.30;99.90
30381;DHT22;17169;50.966;11.038;2023-08-08T07:42:26;16.30;99.90
30381;DHT22;17169;50.966;11.038;2023-08-08T07:45:30;16.30;99.90
30381;DHT22;17169;50.966;11.038;2023-08-08T07:48:32;16.30;99.90
30381;DHT22;17169;50.966;11.038;2023-08-08T07:51:35;16.30;99.90
30381;DHT22;17169;50.966;11.038;2023-08-08T07:54:37;16.30;99.90
30381;DHT22;17169;50.966;11.038;2023-08-08T07:57:39;16.40;99.90
30381;DHT22;17169;50.966;11.038;2023-08-08T08:00:43;16.50;99.90
30381;DHT22;17169;50.966;11.038;2023-08-08T08:03:45;16.50;99.90
30381;DHT22;17169;50.966;11.038;2023-08-08T08:06:48;16.70;99.90
30381;DHT22;17169;50.966;11.038;2023-08-08T08:09:50;16.70;99.90
30381;DHT22;17169;50.966;11.038;2023-08-08T08:12:53;16.80;99.90
30381;DHT22;17169;50.966;11.038;2023-08-08T08:16:00;16.90;99.90
30381;DHT22;17169;50.966;11.038;2023-08-08T08:19:02;17.00;99.90
30381;DHT22;17169;50.966;11.038;2023-08-08T08:22:05;17.00;99.90
30381;DHT22;17169;50.966;11.038;2023-08-08T08:25:07;17.00;99.90
30381;DHT22;17169;50.966;11.038;2023-08-08T08:28:10;17.00;99.90
30381;DHT22;17169;50.966;11.038;2023-08-08T08:31:14;17.10;99.90
30381;DHT22;17169;50.966;11.038;2023-08-08T08:34:16;17.20;99.90
30381;DHT22;17169;50.966;11.038;2023-08-08T08:37:18;17.40;99.90
30381;DHT22;17169;50.966;11.038;2023-08-08T08:40:21;17.40;99.90
30381;DHT22;17169;50.966;11.038;2023-08-08T08:43:24;17.50;99.90
30381;DHT22;17169;50.966;11.038;2023-08-08T08:46:29;17.60;99.90
30381;DHT22;17169;50.966;11.038;2023-08-08T08:49:32;17.70;99.90
30381;DHT22;17169;50.966;11.038;2023-08-08T08:52:37;17.80;99.90
30381;DHT22;17169;50.966;11.038;2023-08-08T08:55:39;18.00;99.90
30381;DHT22;17169;50.966;11.038;2023-08-08T08:58:42;18.00;99.90
30381;DHT22;17169;50.966;11.038;2023-08-08T09:01:46;18.00;99.90
30381;DHT22;17169;50.966;11.038;2023-08-08T09:04:48;18.20;99.90
30381;DHT22;17169;50.966;11.038;2023-08-08T09:07:51;18.30;99.90
30381;DHT22;17169;50.966;11.038;2023-08-08T09:10:53;18.40;99.90
30381;DHT22;17169;50.966;11.038;2023-08-08T09:13:57;18.70;99.90
30381;DHT22;17169;50.966;11.038;2023-08-08T09:17:02;18.80;99.90
30381;DHT22;17169;50.966;11.038;2023-08-08T09:20:05;18.90;99.60
30381;DHT22;17169;50.966;11.038;2023-08-08T09:23:09;18.90;99.80
30381;DHT22;17169;50.966;11.038;2023-08-08T09:26:13;19.00;99.30
30381;DHT22;17169;50.966;11.038;2023-08-08T09:29:17;19.00;99.20
30381;DHT22;17169;50.966;11.038;2023-08-08T09:32:21;19.20;99.90
30381;DHT22;17169;50.966;11.038;2023-08-08T09:35:23;19.40;99.00
30381;DHT22;17169;50.966;11.038;2023-08-08T09:38:25;19.30;98.70
30381;DHT22;17169;50.966;11.038;2023-08-08T09:41:28;19.50;98.90
30381;DHT22;17169;50.966;11.038;2023-08-08T09:44:30;19.60;97.60
30381;DHT22;17169;50.966;11.038;2023-08-08T09:47:37;19.50;97.50
30381;DHT22;17169;50.966;11.038;2023-08-08T09:50:40;19.40;97.50
30381;DHT22;17169;50.966;11.038;2023-08-08T09:53:43;19.50;97.70
30381;DHT22;17169;50.966;11.038;2023-08-08T09:56:48;19.50;97.50
30381;DHT22;17169;50.966;11.038;2023-08-08T09:59:51;19.60;97.50
30381;DHT22;17169;50.966;11.038;2023-08-08T10:02:55;19.70;97.50
30381;DHT22;17169;50.966;11.038;2023-08-08T10:06:01;19.80;97.20
30381;DHT22;17169;50.966;11.038;2023-08-08T10:09:04;19.80;97.10
30381;DHT22;17169;50.966;11.038;2023-08-08T10:12:08;19.90;97.00
30381;DHT22;17169;50.966;11.038;2023-08-08T10:15:11;19.90;96.40
30381;DHT22;17169;50.966;11.038;2023-08-08T10:18:15;19.80;96.50
30381;DHT22;17169;50.966;11.038;2023-08-08T10:21:17;19.80;95.70
30381;DHT22;17169;50.966;11.038;2023-08-08T10:24:20;19.70;95.20
30381;DHT22;17169;50.966;11.038;2023-08-08T10:27:31;19.60;95.80
30381;DHT22;17169;50.966;11.038;2023-08-08T10:30:44;19.50;95.30
30381;DHT22;17169;50.966;11.038;2023-08-08T10:33:49;19.60;95.40
30381;DHT22;17169;50.966;11.038;2023-08-08T10:36:51;19.50;95.70
30381;DHT22;17169;50.966;11.038;2023-08-08T10:39:54;19.50;96.10
30381;DHT22;17169;50.966;11.038;2023-08-08T10:42:59;19.60;95.90
30381;DHT22;17169;50.966;11.038;2023-08-08T10:46:03;19.70;95.70
30381;DHT22;17169;50.966;11.038;2023-08-08T10:49:07;19.70;95.50
30381;DHT22;17169;50.966;11.038;2023-08-08T10:52:14;20.00;96.40
30381;DHT22;17169;50.966;11.038;2023-08-08T10:55:20;20.30;95.60
30381;DHT22;17169;50.966;11.038;2023-08-08T10:58:23;20.40;95.40
30381;DHT22;17169;50.966;11.038;2023-08-08T11:01:37;20.70;95.20
30381;DHT22;17169;50.966;11.038;2023-08-08T11:04:41;20.90;95.10
30381;DHT22;17169;50.966;11.038;2023-08-08T11:07:44;21.40;94.60
30381;DHT22;17169;50.966;11.038;2023-08-08T11:10:51;21.40;93.50
30381;DHT22;17169;50.966;11.038;2023-08-08T11:13:53;21.20;93.70
30381;DHT22;17169;50.966;11.038;2023-08-08T11:16:56;21.20;93.00
30381;DHT22;17169;50.966;11.038;2023-08-08T11:19:59;21.30;93.70
30381;DHT22;17169;50.966;11.038;2023-08-08T11:23:03;21.60;94.00
30381;DHT22;17169;50.966;11.038;2023-08-08T11:26:06;21.80;93.30
30381;DHT22;17169;50.966;11.038;2023-08-08T11:29:09;21.80;93.60
30381;DHT22;17169;50.966;11.038;2023-08-08T11:32:11;21.70;93.50
30381;DHT22;17169;50.966;11.038;2023-08-08T11:35:18;21.40;93.20
30381;DHT22;17169;50.966;11.038;2023-08-08T11:38:20;21.20;93.10
30381;DHT22;17169;50.966;11.038;2023-08-08T11:41:23;21.20;93.30
30381;DHT22;17169;50.966;11.038;2023-08-08T11:44:27;21.20;93.20
30381;DHT22;17169;50.966;11.038;2023-08-08T11:47:29;21.30;93.10
30381;DHT22;17169;50.966;11.038;2023-08-08T11:50:38;21.30;92.90
30381;DHT22;17169;50.966;11.038;2023-08-08T11:53:52;21.40;92.80
30381;DHT22;17169;50.966;11.038;2023-08-08T11:56:55;21.40;92.80
30381;DHT22;17169;50.966;11.038;2023-08-08T11:59:57;21.40;93.20
30381;DHT22;17169;50.966;11.038;2023-08-08T12:03:01;21.50;92.00
30381;DHT22;17169;50.966;11.038;2023-08-08T12:06:12;21.50;91.30
30381;DHT22;17169;50.966;11.038;2023-08-08T12:09:15;21.50;91.70
30381;DHT22;17169;50.966;11.038;2023-08-08T12:12:19;21.20;91.80
30381;DHT22;17169;50.966;11.038;2023-08-08T12:15:22;21.00;92.60
30381;DHT22;17169;50.966;11.038;2023-08-08T12:18:24;20.90;92.70
30381;DHT22;17169;50.966;11.038;2023-08-08T12:21:28;21.20;93.00
30381;DHT22;17169;50.966;11.038;2023-08-08T12:24:30;21.40;92.90
30381;DHT22;17169;50.966;11.038;2023-08-08T12:27:34;21.90;92.50
30381;DHT22;17169;50.966;11.038;2023-08-08T12:30:36;21.90;92.30
30381;DHT22;17169;50.966;11.038;2023-08-08T12:33:38;21.60;91.40
30381;DHT22;17169;50.966;11.038;2023-08-08T12:36:42;21.40;91.90
30381;DHT22;17169;50.966;11.038;2023-08-08T12:39:44;21.30;92.10
30381;DHT22;17169;50.966;11.038;2023-08-08T12:42:47;21.00;92.00
30381;DHT22;17169;50.966;11.038;2023-08-08T12:45:49;20.80;92.60
30381;DHT22;17169;50.966;11.038;2023-08-08T12:48:51;20.50;92.60
30381;DHT22;17169;50.966;11.038;2023-08-08T12:51:55;20.30;93.20
30381;DHT22;17169;50.966;11.038;2023-08-08T12:54:57;20.00;94.40
30381;DHT22;17169;50.966;11.038;2023-08-08T12:58:01;19.70;96.20
30381;DHT22;17169;50.966;11.038;2023-08-08T13:01:03;19.20;97.90
30381;DHT22;17169;50.966;11.038;2023-08-08T13:04:06;19.00;99.20
30381;DHT22;17169;50.966;11.038;2023-08-08T13:07:10;18.90;99.90
30381;DHT22;17169;50.966;11.038;2023-08-08T13:10:12;18.80;99.90
30381;DHT22;17169;50.966;11.038;2023-08-08T13:13:14;18.60;99.90
30381;DHT22;17169;50.966;11.038;2023-08-08T13:16:17;18.30;99.90
30381;DHT22;17169;50.966;11.038;2023-08-08T13:19:19;18.40;99.90
30381;DHT22;17169;50.966;11.038;2023-08-08T13:22:27;18.20;99.90
30381;DHT22;17169;50.966;11.038;2023-08-08T13:25:29;18.20;99.90
30381;DHT22;17169;50.966;11.038;2023-08-08T13:28:32;18.20;99.90
30381;DHT22;17169;50.966;11.038;2023-08-08T13:31:34;18.10;99.90
30381;DHT22;17169;50.966;11.038;2023-08-08T13:34:37;17.90;99.90
30381;DHT22;17169;50.966;11.038;2023-08-08T13:37:41;17.80;99.90
30381;DHT22;17169;50.966;11.038;2023-08-08T13:40:43;17.60;99.90
30381;DHT22;17169;50.966;11.038;2023-08-08T13:43:45;17.40;99.90
30381;DHT22;17169;50.966;11.038;2023-08-08T13:46:48;17.30;99.90
30381;DHT22;17169;50.966;11.038;2023-08-08T13:49:51;17.10;99.90
30381;DHT22;17169;50.966;11.038;2023-08-08T13:52:55;17.10;99.90
30381;DHT22;17169;50.966;11.038;2023-08-08T13:55:58;17.10;99.90
30381;DHT22;17169;50.966;11.038;2023-08-08T13:59:00;17.00;99.90
30381;DHT22;17169;50.966;11.038;2023-08-08T14:02:02;17.00;99.90
30381;DHT22;17169;50.966;11.038;2023-08-08T14:05:05;17.00;99.90
30381;DHT22;17169;50.966;11.038;2023-08-08T14:08:10;17.00;99.90
30381;DHT22;17169;50.966;11.038;2023-08-08T14:11:12;17.10;99.90
30381;DHT22;17169;50.966;11.038;2023-08-08T14:14:15;17.10;99.90
30381;DHT22;17169;50.966;11.038;2023-08-08T14:17:17;17.20;99.90
30381;DHT22;17169;50.966;11.038;2023-08-08T14:20:19;17.30;99.90
30381;DHT22;17169;50.966;11.038;2023-08-08T14:23:23;17.40;99.90
30381;DHT22;17169;50.966;11.038;2023-08-08T14:26:25;17.50;99.90
30381;DHT22;17169;50.966;11.038;2023-08-08T14:29:28;17.60;99.90
30381;DHT22;17169;50.966;11.038;2023-08-08T14:32:30;17.70;99.90
30381;DHT22;17169;50.966;11.038;2023-08-08T14:35:33;17.80;99.90
30381;DHT22;17169;50.966;11.038;2023-08-08T14:38:36;18.00;99.90
30381;DHT22;17169;50.966;11.038;2023-08-08T14:41:39;18.30;99.90
30381;DHT22;17169;50.966;11.038;2023-08-08T14:44:41;18.50;99.90
30381;DHT22;17169;50.966;11.038;2023-08-08T14:47:44;18.40;99.90
30381;DHT22;17169;50.966;11.038;2023-08-08T14:50:46;18.30;99.90
30381;DHT22;17169;50.966;11.038;2023-08-08T14:53:50;18.30;99.90
30381;DHT22;17169;50.966;11.038;2023-08-08T14:56:52;18.20;99.90
30381;DHT22;17169;50.966;11.038;2023-08-08T14:59:55;18.10;99.90
30381;DHT22;17169;50.966;11.038;2023-08-08T15:02:57;18.00;99.90
30381;DHT22;17169;50.966;11.038;2023-08-08T15:05:59;18.00;99.90
30381;DHT22;17169;50.966;11.038;2023-08-08T15:09:03;18.00;99.90
30381;DHT22;17169;50.966;11.038;2023-08-08T15:12:06;18.00;99.90
30381;DHT22;17169;50.966;11.038;2023-08-08T15:15:09;18.10;99.90
30381;DHT22;17169;50.966;11.038;2023-08-08T15:18:12;18.10;99.90
30381;DHT22;17169;50.966;11.038;2023-08-08T15:21:14;18.10;99.90
30381;DHT22;17169;50.966;11.038;2023-08-08T15:24:21;18.10;99.90
30381;DHT22;17169;50.966;11.038;2023-08-08T15:27:24;18.10;99.90
30381;DHT22;17169;50.966;11.038;2023-08-08T15:30:26;18.10;99.90
30381;DHT22;17169;50.966;11.038;2023-08-08T15:33:28;18.00;99.90
30381;DHT22;17169;50.966;11.038;2023-08-08T15:36:31;17.90;99.90
30381;DHT22;17169;50.966;11.038;2023-08-08T15:39:35;17.90;99.90
30381;DHT22;17169;50.966;11.038;2023-08-08T15:42:37;17.80;99.90
30381;DHT22;17169;50.966;11.038;2023-08-08T15:45:41;17.80;99.90
30381;DHT22;17169;50.966;11.038;2023-08-08T15:48:43;17.90;99.90
30381;DHT22;17169;50.966;11.038;2023-08-08T15:51:46;17.90;99.90
30381;DHT22;17169;50.966;11.038;2023-08-08T15:54:49;17.90;99.90
30381;DHT22;17169;50.966;11.038;2023-08-08T15:57:52;17.90;99.90
30381;DHT22;17169;50.966;11.038;2023-08-08T16:00:54;17.90;99.90
30381;DHT22;17169;50.966;11.038;2023-08-08T16:03:57;17.90;99.90
30381;DHT22;17169;50.966;11.038;2023-08-08T16:07:00;17.90;99.90
30381;DHT22;17169;50.966;11.038;2023-08-08T16:10:04;17.90;99.90
30381;DHT22;17169;50.966;11.038;2023-08-08T16:13:08;17.90;99.90
30381;DHT22;17169;50.966;11.038;2023-08-08T16:16:10;17.90;99.90
30381;DHT22;17169;50.966;11.038;2023-08-08T16:19:13;17.90;99.90
30381;DHT22;17169;50.966;11.038;2023-08-08T16:22:15;17.90;99.90
30381;DHT22;17169;50.966;11.038;2023-08-08T16:25:19;17.90;99.90
30381;DHT22;17169;50.966;11.038;2023-08-08T16:28:21;17.90;99.90
30381;DHT22;17169;50.966;11.038;2023-08-08T16:31:25;17.80;99.90
30381;DHT22;17169;50.966;11.038;2023-08-08T16:34:28;17.80;99.90
30381;DHT22;17169;50.966;11.038;2023-08-08T16:37:31;17.80;99.90
30381;DHT22;17169;50.966;11.038;2023-08-08T16:40:35;17.80;99.90
30381;DHT22;17169;50.966;11.038;2023-08-08T16:43:38;17.80;99.90
30381;DHT22;17169;50.966;11.038;2023-08-08T16:46:40;17.80;99.90
30381;DHT22;17169;50.966;11.038;2023-08-08T16:49:43;17.80;99.90
30381;DHT22;17169;50.966;11.038;2023-08-08T16:52:46;17.80;99.90
30381;DHT22;17169;50.966;11.038;2023-08-08T16:55:50;17.80;99.90
30381;DHT22;17169;50.966;11.038;2023-08-08T16:58:53;17.90;99.90
30381;DHT22;17169;50.966;11.038;2023-08-08T17:01:55;17.80;99.90
30381;DHT22;17169;50.966;11.038;2023-08-08T17:04:58;17.70;99.90
30381;DHT22;17169;50.966;11.038;2023-08-08T17:08:00;17.70;99.90
30381;DHT22;17169;50.966;11.038;2023-08-08T17:11:04;17.60;99.90
30381;DHT22;17169;50.966;11.038;2023-08-08T17:14:07;17.60;99.90
30381;DHT22;17169;50.966;11.038;2023-08-08T17:17:09;17.60;99.90
30381;DHT22;17169;50.966;11.038;2023-08-08T17:20:12;17.60;99.90
30381;DHT22;17169;50.966;11.038;2023-08-08T17:23:14;17.50;99.90
30381;DHT22;17169;50.966;11.038;2023-08-08T17:26:18;17.40;99.90
30381;DHT22;17169;50.966;11.038;2023-08-08T17:29:20;17.40;99.90
30381;DHT22;17169;50.966;11.038;2023-08-08T17:32:22;17.40;99.90
30381;DHT22;17169;50.966;11.038;2023-08-08T17:35:26;17.30;99.90
30381;DHT22;17169;50.966;11.038;2023-08-08T17:38:29;17.10;99.90
30381;DHT22;17169;50.966;11.038;2023-08-08T17:41:32;16.80;99.90
30381;DHT22;17169;50.966;11.038;2023-08-08T17:44:35;16.70;99.90
30381;DHT22;17169;50.966;11.038;2023-08-08T17:47:37;16.60;99.90
30381;DHT22;17169;50.966;11.038;2023-08-08T17:50:40;16.50;99.90
30381;DHT22;17169;50.966;11.038;2023-08-08T17:53:42;16.50;99.90
30381;DHT22;17169;50.966;11.038;2023-08-08T17:56:47;16.50;99.90
30381;DHT22;17169;50.966;11.038;2023-08-08T17:59:49;16.40;99.90
30381;DHT22;17169;50.966;11.038;2023-08-08T18:02:52;16.50;99.90
30381;DHT22;17169;50.966;11.038;2023-08-08T18:05:56;16.40;99.90
30381;DHT22;17169;50.966;11.038;2023-08-08T18:08:59;16.40;99.90
30381;DHT22;17169;50.966;11.038;2023-08-08T18:12:03;16.50;99.90
30381;DHT22;17169;50.966;11.038;2023-08-08T18:15:06;16.40;99.90
30381;DHT22;17169;50.966;11.038;2023-08-08T18:18:09;16.40;99.90
30381;DHT22;17169;50.966;11.038;2023-08-08T18:21:12;16.20;99.90
30381;DHT22;17169;50.966;11.038;2023-08-08T18:24:14;16.10;99.90
30381;DHT22;17169;50.966;11.038;2023-08-08T18:27:18;16.00;99.90
30381;DHT22;17169;50.966;11.038;2023-08-08T18:30:21;16.00;99.90
30381;DHT22;17169;50.966;11.038;2023-08-08T18:33:24;15.90;99.90
30381;DHT22;17169;50.966;11.038;2023-08-08T18:36:27;15.90;99.90
30381;DHT22;17169;50.966;11.038;2023-08-08T18:39:29;15.80;99.90
30381;DHT22;17169;50.966;11.038;2023-08-08T18:42:33;15.80;99.90
30381;DHT22;17169;50.966;11.038;2023-08-08T18:45:35;15.70;99.90
30381;DHT22;17169;50.966;11.038;2023-08-08T18:48:38;15.60;99.90
30381;DHT22;17169;50.966;11.038;2023-08-08T18:51:40;15.50;99.90
30381;DHT22;17169;50.966;11.038;2023-08-08T18:54:42;15.50;99.90
30381;DHT22;17169;50.966;11.038;2023-08-08T18:57:46;15.40;99.90